sensor_id;sensor_type;location;lat;lon;timestamp;P1;durP1;ratioP1;P2;durP2;ratioP2
11893;SDS011;6006;49.696;8.662;2023-10-13T00:01:53;6.43;;;4.22;;
11893;SDS011;6006;49.696;8.662;2023-10-13T00:04:20;5.35;;;4.45;;
11893;SDS011;6006;49.696;8.662;2023-10-13T00:06:50;4.93;;;4.43;;
11893;SDS011;6006;49.696;8.662;2023-10-13T00:09:17;6.75;;;4.85;;
11893;SDS011;6006;49.696;8.662;2023-10-13T00:11:48;5.15;;;4.03;;
11893;SDS011;6006;49.696;8.662;2023-10-13T00:14:17;10.93;;;4.90;;
11893;SDS011;6006;49.696;8.662;2023-10-13T00:16:47;5.13;;;3.97;;
11893;SDS011;6006;49.696;8.662;2023-10-13T00:19:28;5.07;;;4.30;;
11893;SDS011;6006;49.696;8.662;2023-10-13T00:22:02;7.10;;;4.80;;
11893;SDS011;6006;49.696;8.662;2023-10-13T00:24:34;4.25;;;3.85;;
11893;SDS011;6006;49.696;8.662;2023-10-13T00:27:07;7.38;;;4.30;;
11893;SDS011;6006;49.696;8.662;2023-10-13T00:29:49;7.68;;;4.15;;
11893;SDS011;6006;49.696;8.662;2023-10-13T00:32:30;6.68;;;4.35;;
11893;SDS011;6006;49.696;8.662;2023-10-13T00:35:02;7.65;;;5.30;;
11893;SDS011;6006;49.696;8.662;2023-10-13T00:37:31;8.68;;;4.97;;
11893;SDS011;6006;49.696;8.662;2023-10-13T00:40:07;5.75;;;4.40;;
11893;SDS011;6006;49.696;8.662;2023-10-13T00:42:49;7.80;;;4.68;;
11893;SDS011;6006;49.696;8.662;2023-10-13T00:45:18;11.63;;;5.78;;
11893;SDS011;6006;49.696;8.662;2023-10-13T00:47:46;8.18;;;4.95;;
11893;SDS011;6006;49.696;8.662;2023-10-13T00:50:16;7.82;;;5.07;;
11893;SDS011;6006;49.696;8.662;2023-10-13T00:52:43;6.40;;;4.88;;
11893;SDS011;6006;49.696;8.662;2023-10-13T00:55:15;11.23;;;5.80;;
11893;SDS011;6006;49.696;8.662;2023-10-13T00:57:48;10.35;;;5.60;;
11893;SDS011;6006;49.696;8.662;2023-10-13T01:00:18;10.60;;;5.72;;
11893;SDS011;6006;49.696;8.662;2023-10-13T01:02:51;7.70;;;5.40;;
11893;SDS011;6006;49.696;8.662;2023-10-13T01:05:21;8.10;;;4.72;;
11893;SDS011;6006;49.696;8.662;2023-10-13T01:07:48;7.65;;;4.57;;
11893;SDS011;6006;49.696;8.662;2023-10-13T01:10:18;6.97;;;4.55;;
11893;SDS011;6006;49.696;8.662;2023-10-13T01:12:45;5.88;;;4.45;;
11893;SDS011;6006;49.696;8.662;2023-10-13T01:15:12;6.72;;;5.13;;
11893;SDS011;6006;49.696;8.662;2023-10-13T01:17:43;6.53;;;4.78;;
11893;SDS011;6006;49.696;8.662;2023-10-13T01:20:12;10.02;;;5.43;;
11893;SDS011;6006;49.696;8.662;2023-10-13T01:22:45;8.32;;;5.15;;
11893;SDS011;6006;49.696;8.662;2023-10-13T01:25:21;7.82;;;5.22;;
11893;SDS011;6006;49.696;8.662;2023-10-13T01:27:50;6.00;;;4.53;;
11893;SDS011;6006;49.696;8.662;2023-10-13T01:30:18;6.65;;;4.63;;
11893;SDS011;6006;49.696;8.662;2023-10-13T01:32:48;6.28;;;3.88;;
11893;SDS011;6006;49.696;8.662;2023-10-13T01:35:16;6.78;;;5.22;;
11893;SDS011;6006;49.696;8.662;2023-10-13T01:37:44;5.45;;;4.03;;
11893;SDS011;6006;49.696;8.662;2023-10-13T01:40:11;6.05;;;4.70;;
11893;SDS011;6006;49.696;8.662;2023-10-13T01:42:39;8.50;;;4.60;;
11893;SDS011;6006;49.696;8.662;2023-10-13T01:45:06;8.38;;;5.28;;
11893;SDS011;6006;49.696;8.662;2023-10-13T01:47:32;5.70;;;4.28;;
11893;SDS011;6006;49.696;8.662;2023-10-13T01:49:59;7.57;;;4.28;;
11893;SDS011;6006;49.696;8.662;2023-10-13T01:52:38;4.55;;;3.92;;
11893;SDS011;6006;49.696;8.662;2023-10-13T01:55:07;5.75;;;4.70;;
11893;SDS011;6006;49.696;8.662;2023-10-13T01:57:35;7.00;;;4.60;;
11893;SDS011;6006;49.696;8.662;2023-10-13T02:00:04;7.50;;;4.70;;
11893;SDS011;6006;49.696;8.662;2023-10-13T02:02:44;8.38;;;4.72;;
11893;SDS011;6006;49.696;8.662;2023-10-13T02:05:15;5.80;;;4.25;;
11893;SDS011;6006;49.696;8.662;2023-10-13T02:07:42;5.40;;;4.25;;
11893;SDS011;6006;49.696;8.662;2023-10-13T02:10:10;7.32;;;4.78;;
11893;SDS011;6006;49.696;8.662;2023-10-13T02:12:37;6.07;;;4.43;;
11893;SDS011;6006;49.696;8.662;2023-10-13T02:15:10;9.05;;;4.53;;
11893;SDS011;6006;49.696;8.662;2023-10-13T02:17:45;7.68;;;5.13;;
11893;SDS011;6006;49.696;8.662;2023-10-13T02:20:16;10.13;;;5.00;;
11893;SDS011;6006;49.696;8.662;2023-10-13T02:22:43;7.30;;;4.18;;
11893;SDS011;6006;49.696;8.662;2023-10-13T02:25:14;5.32;;;4.65;;
11893;SDS011;6006;49.696;8.662;2023-10-13T02:27:42;6.95;;;4.53;;
11893;SDS011;6006;49.696;8.662;2023-10-13T02:30:14;6.30;;;5.18;;
11893;SDS011;6006;49.696;8.662;2023-10-13T02:32:40;9.40;;;5.03;;
11893;SDS011;6006;49.696;8.662;2023-10-13T02:35:08;6.60;;;4.63;;
11893;SDS011;6006;49.696;8.662;2023-10-13T02:37:40;5.32;;;4.38;;
11893;SDS011;6006;49.696;8.662;2023-10-13T02:40:09;8.23;;;4.47;;
11893;SDS011;6006;49.696;8.662;2023-10-13T02:42:36;7.90;;;4.05;;
11893;SDS011;6006;49.696;8.662;2023-10-13T02:45:04;5.63;;;4.00;;
11893;SDS011;6006;49.696;8.662;2023-10-13T02:47:32;7.60;;;4.80;;
11893;SDS011;6006;49.696;8.662;2023-10-13T02:49:59;8.00;;;5.45;;
11893;SDS011;6006;49.696;8.662;2023-10-13T02:52:36;6.47;;;4.32;;
11893;SDS011;6006;49.696;8.662;2023-10-13T02:55:06;7.03;;;5.20;;
11893;SDS011;6006;49.696;8.662;2023-10-13T02:57:35;7.57;;;4.80;;
11893;SDS011;6006;49.696;8.662;2023-10-13T03:00:01;7.38;;;5.05;;
11893;SDS011;6006;49.696;8.662;2023-10-13T03:02:39;8.07;;;5.45;;
11893;SDS011;6006;49.696;8.662;2023-10-13T03:05:12;9.38;;;6.10;;
11893;SDS011;6006;49.696;8.662;2023-10-13T03:07:41;8.00;;;5.68;;
11893;SDS011;6006;49.696;8.662;2023-10-13T03:10:08;7.95;;;5.72;;
11893;SDS011;6006;49.696;8.662;2023-10-13T03:12:36;11.35;;;5.20;;
11893;SDS011;6006;49.696;8.662;2023-10-13T03:15:02;8.85;;;4.82;;
11893;SDS011;6006;49.696;8.662;2023-10-13T03:17:40;6.50;;;5.20;;
11893;SDS011;6006;49.696;8.662;2023-10-13T03:20:09;10.05;;;4.40;;
11893;SDS011;6006;49.696;8.662;2023-10-13T03:22:38;9.63;;;4.85;;
11893;SDS011;6006;49.696;8.662;2023-10-13T03:25:04;8.23;;;4.80;;
11893;SDS011;6006;49.696;8.662;2023-10-13T03:27:32;7.75;;;4.90;;
11893;SDS011;6006;49.696;8.662;2023-10-13T03:30:05;7.82;;;4.75;;
11893;SDS011;6006;49.696;8.662;2023-10-13T03:32:41;8.52;;;5.15;;
11893;SDS011;6006;49.696;8.662;2023-10-13T03:35:19;5.63;;;4.38;;
11893;SDS011;6006;49.696;8.662;2023-10-13T03:37:49;6.85;;;4.93;;
11893;SDS011;6006;49.696;8.662;2023-10-13T03:40:16;9.77;;;5.10;;
11893;SDS011;6006;49.696;8.662;2023-10-13T03:42:57;7.78;;;5.13;;
11893;SDS011;6006;49.696;8.662;2023-10-13T03:45:29;5.90;;;4.97;;
11893;SDS011;6006;49.696;8.662;2023-10-13T03:48:03;6.30;;;4.68;;
11893;SDS011;6006;49.696;8.662;2023-10-13T03:50:34;7.47;;;4.95;;
11893;SDS011;6006;49.696;8.662;2023-10-13T03:53:01;8.88;;;4.88;;
11893;SDS011;6006;49.696;8.662;2023-10-13T03:55:31;7.07;;;5.00;;
11893;SDS011;6006;49.696;8.662;2023-10-13T03:58:00;9.18;;;4.40;;
11893;SDS011;6006;49.696;8.662;2023-10-13T04:00:28;6.93;;;4.88;;
11893;SDS011;6006;49.696;8.662;2023-10-13T04:02:56;4.40;;;3.97;;
11893;SDS011;6006;49.696;8.662;2023-10-13T04:05:42;9.10;;;4.50;;
11893;SDS011;6006;49.696;8.662;2023-10-13T04:08:10;8.60;;;4.43;;
11893;SDS011;6006;49.696;8.662;2023-10-13T04:10:55;5.63;;;4.57;;
11893;SDS011;6006;49.696;8.662;2023-10-13T04:13:36;4.88;;;3.72;;
11893;SDS011;6006;49.696;8.662;2023-10-13T04:16:21;7.32;;;5.05;;
11893;SDS011;6006;49.696;8.662;2023-10-13T04:19:12;6.63;;;4.40;;
11893;SDS011;6006;49.696;8.662;2023-10-13T04:21:49;7.22;;;4.55;;
11893;SDS011;6006;49.696;8.662;2023-10-13T04:24:39;4.45;;;4.03;;
11893;SDS011;6006;49.696;8.662;2023-10-13T04:27:19;7.22;;;4.47;;
11893;SDS011;6006;49.696;8.662;2023-10-13T04:30:06;8.80;;;4.10;;
11893;SDS011;6006;49.696;8.662;2023-10-13T04:32:35;5.05;;;4.30;;
11893;SDS011;6006;49.696;8.662;2023-10-13T04:35:07;8.32;;;4.10;;
11893;SDS011;6006;49.696;8.662;2023-10-13T04:37:35;6.55;;;3.80;;
11893;SDS011;6006;49.696;8.662;2023-10-13T04:40:17;5.07;;;4.53;;
11893;SDS011;6006;49.696;8.662;2023-10-13T04:42:44;6.25;;;4.45;;
11893;SDS011;6006;49.696;8.662;2023-10-13T04:45:19;4.43;;;3.95;;
11893;SDS011;6006;49.696;8.662;2023-10-13T04:48:03;6.32;;;4.55;;
11893;SDS011;6006;49.696;8.662;2023-10-13T04:50:44;7.72;;;4.15;;
11893;SDS011;6006;49.696;8.662;2023-10-13T04:53:17;8.48;;;4.25;;
11893;SDS011;6006;49.696;8.662;2023-10-13T04:55:55;6.00;;;4.38;;
11893;SDS011;6006;49.696;8.662;2023-10-13T04:58:42;7.50;;;4.65;;
11893;SDS011;6006;49.696;8.662;2023-10-13T05:01:42;4.80;;;3.95;;
11893;SDS011;6006;49.696;8.662;2023-10-13T05:04:41;6.05;;;4.28;;
11893;SDS011;6006;49.696;8.662;2023-10-13T05:07:21;6.22;;;4.45;;
11893;SDS011;6006;49.696;8.662;2023-10-13T05:10:12;4.15;;;3.03;;
11893;SDS011;6006;49.696;8.662;2023-10-13T05:13:05;4.40;;;3.75;;
11893;SDS011;6006;49.696;8.662;2023-10-13T05:15:50;5.30;;;3.97;;
11893;SDS011;6006;49.696;8.662;2023-10-13T05:18:35;7.05;;;4.55;;
11893;SDS011;6006;49.696;8.662;2023-10-13T05:21:19;5.43;;;4.25;;
11893;SDS011;6006;49.696;8.662;2023-10-13T05:24:04;5.15;;;3.80;;
11893;SDS011;6006;49.696;8.662;2023-10-13T05:26:52;9.75;;;4.40;;
11893;SDS011;6006;49.696;8.662;2023-10-13T05:29:38;7.10;;;4.55;;
11893;SDS011;6006;49.696;8.662;2023-10-13T05:32:22;7.38;;;4.05;;
11893;SDS011;6006;49.696;8.662;2023-10-13T05:35:07;8.45;;;4.50;;
11893;SDS011;6006;49.696;8.662;2023-10-13T05:37:51;8.02;;;3.95;;
11893;SDS011;6006;49.696;8.662;2023-10-13T05:40:35;5.05;;;3.88;;
11893;SDS011;6006;49.696;8.662;2023-10-13T05:43:21;4.45;;;3.85;;
11893;SDS011;6006;49.696;8.662;2023-10-13T05:46:05;6.70;;;3.65;;
11893;SDS011;6006;49.696;8.662;2023-10-13T05:49:14;6.88;;;3.85;;
11893;SDS011;6006;49.696;8.662;2023-10-13T05:52:14;4.88;;;3.40;;
11893;SDS011;6006;49.696;8.662;2023-10-13T05:55:01;7.22;;;3.88;;
11893;SDS011;6006;49.696;8.662;2023-10-13T05:57:45;5.15;;;3.38;;
11893;SDS011;6006;49.696;8.662;2023-10-13T06:00:31;6.43;;;3.65;;
11893;SDS011;6006;49.696;8.662;2023-10-13T06:03:22;3.25;;;2.95;;
11893;SDS011;6006;49.696;8.662;2023-10-13T06:06:08;5.93;;;3.22;;
11893;SDS011;6006;49.696;8.662;2023-10-13T06:08:52;5.00;;;3.13;;
11893;SDS011;6006;49.696;8.662;2023-10-13T06:11:36;9.27;;;3.83;;
11893;SDS011;6006;49.696;8.662;2023-10-13T06:14:20;6.80;;;3.75;;
11893;SDS011;6006;49.696;8.662;2023-10-13T06:17:06;4.43;;;3.47;;
11893;SDS011;6006;49.696;8.662;2023-10-13T06:19:50;7.93;;;3.80;;
11893;SDS011;6006;49.696;8.662;2023-10-13T06:22:34;5.30;;;3.55;;
11893;SDS011;6006;49.696;8.662;2023-10-13T06:25:19;5.60;;;3.05;;
11893;SDS011;6006;49.696;8.662;2023-10-13T06:28:03;4.40;;;2.88;;
11893;SDS011;6006;49.696;8.662;2023-10-13T06:30:55;9.05;;;3.67;;
11893;SDS011;6006;49.696;8.662;2023-10-13T06:33:25;6.57;;;3.20;;
11893;SDS011;6006;49.696;8.662;2023-10-13T06:35:55;8.73;;;3.80;;
11893;SDS011;6006;49.696;8.662;2023-10-13T06:38:23;5.45;;;3.40;;
11893;SDS011;6006;49.696;8.662;2023-10-13T06:40:55;4.82;;;3.40;;
11893;SDS011;6006;49.696;8.662;2023-10-13T06:43:22;8.18;;;3.38;;
11893;SDS011;6006;49.696;8.662;2023-10-13T06:45:49;4.63;;;3.20;;
11893;SDS011;6006;49.696;8.662;2023-10-13T06:48:26;5.35;;;2.95;;
11893;SDS011;6006;49.696;8.662;2023-10-13T06:50:58;5.63;;;3.03;;
11893;SDS011;6006;49.696;8.662;2023-10-13T06:53:29;3.15;;;2.85;;
11893;SDS011;6006;49.696;8.662;2023-10-13T06:56:02;6.40;;;3.30;;
11893;SDS011;6006;49.696;8.662;2023-10-13T06:58:32;5.05;;;3.10;;
11893;SDS011;6006;49.696;8.662;2023-10-13T07:00:59;3.65;;;2.67;;
11893;SDS011;6006;49.696;8.662;2023-10-13T07:03:28;3.53;;;2.70;;
11893;SDS011;6006;49.696;8.662;2023-10-13T07:05:56;6.20;;;2.83;;
11893;SDS011;6006;49.696;8.662;2023-10-13T07:08:24;2.47;;;2.17;;
11893;SDS011;6006;49.696;8.662;2023-10-13T07:10:52;4.93;;;3.08;;
11893;SDS011;6006;49.696;8.662;2023-10-13T07:13:27;5.00;;;3.22;;
11893;SDS011;6006;49.696;8.662;2023-10-13T07:15:55;3.25;;;2.58;;
11893;SDS011;6006;49.696;8.662;2023-10-13T07:18:28;10.05;;;3.20;;
11893;SDS011;6006;49.696;8.662;2023-10-13T07:21:01;5.50;;;3.20;;
11893;SDS011;6006;49.696;8.662;2023-10-13T07:23:34;4.57;;;2.60;;
11893;SDS011;6006;49.696;8.662;2023-10-13T07:26:02;4.32;;;2.78;;
11893;SDS011;6006;49.696;8.662;2023-10-13T07:28:29;3.42;;;2.50;;
11893;SDS011;6006;49.696;8.662;2023-10-13T07:30:57;4.88;;;2.58;;
11893;SDS011;6006;49.696;8.662;2023-10-13T07:33:39;2.83;;;2.58;;
11893;SDS011;6006;49.696;8.662;2023-10-13T07:36:07;4.32;;;2.40;;
11893;SDS011;6006;49.696;8.662;2023-10-13T07:38:40;4.13;;;2.88;;
11893;SDS011;6006;49.696;8.662;2023-10-13T07:41:13;4.03;;;2.67;;
11893;SDS011;6006;49.696;8.662;2023-10-13T07:43:41;3.42;;;2.83;;
11893;SDS011;6006;49.696;8.662;2023-10-13T07:46:10;4.63;;;2.58;;
11893;SDS011;6006;49.696;8.662;2023-10-13T07:48:37;4.47;;;2.60;;
11893;SDS011;6006;49.696;8.662;2023-10-13T07:51:10;3.28;;;2.60;;
11893;SDS011;6006;49.696;8.662;2023-10-13T07:53:41;6.95;;;2.95;;
11893;SDS011;6006;49.696;8.662;2023-10-13T07:56:08;3.72;;;2.55;;
11893;SDS011;6006;49.696;8.662;2023-10-13T07:58:37;3.10;;;2.78;;
11893;SDS011;6006;49.696;8.662;2023-10-13T08:01:12;4.00;;;2.60;;
11893;SDS011;6006;49.696;8.662;2023-10-13T08:03:45;3.03;;;2.53;;
11893;SDS011;6006;49.696;8.662;2023-10-13T08:06:12;4.13;;;2.83;;
11893;SDS011;6006;49.696;8.662;2023-10-13T08:08:51;2.30;;;2.10;;
11893;SDS011;6006;49.696;8.662;2023-10-13T08:11:20;7.20;;;2.85;;
11893;SDS011;6006;49.696;8.662;2023-10-13T08:13:52;5.45;;;2.47;;
11893;SDS011;6006;49.696;8.662;2023-10-13T08:16:23;3.38;;;2.47;;
11893;SDS011;6006;49.696;8.662;2023-10-13T08:18:57;5.30;;;2.80;;
11893;SDS011;6006;49.696;8.662;2023-10-13T08:21:26;3.35;;;2.55;;
11893;SDS011;6006;49.696;8.662;2023-10-13T08:23:57;3.53;;;2.35;;
11893;SDS011;6006;49.696;8.662;2023-10-13T08:26:26;3.53;;;2.58;;
11893;SDS011;6006;49.696;8.662;2023-10-13T08:29:17;6.60;;;2.08;;
11893;SDS011;6006;49.696;8.662;2023-10-13T08:32:15;4.85;;;2.85;;
11893;SDS011;6006;49.696;8.662;2023-10-13T08:35:02;5.13;;;2.85;;
11893;SDS011;6006;49.696;8.662;2023-10-13T08:37:47;4.43;;;2.33;;
11893;SDS011;6006;49.696;8.662;2023-10-13T08:40:26;4.32;;;2.72;;
11893;SDS011;6006;49.696;8.662;2023-10-13T08:43:11;5.07;;;2.13;;
11893;SDS011;6006;49.696;8.662;2023-10-13T08:45:39;3.90;;;2.67;;
11893;SDS011;6006;49.696;8.662;2023-10-13T08:48:19;4.03;;;2.50;;
11893;SDS011;6006;49.696;8.662;2023-10-13T08:50:52;3.95;;;2.45;;
11893;SDS011;6006;49.696;8.662;2023-10-13T08:53:21;5.30;;;2.20;;
11893;SDS011;6006;49.696;8.662;2023-10-13T08:55:56;4.18;;;2.75;;
11893;SDS011;6006;49.696;8.662;2023-10-13T08:58:40;2.50;;;2.20;;
11893;SDS011;6006;49.696;8.662;2023-10-13T09:01:31;3.17;;;2.15;;
11893;SDS011;6006;49.696;8.662;2023-10-13T09:04:11;4.68;;;2.85;;
11893;SDS011;6006;49.696;8.662;2023-10-13T09:06:49;3.33;;;2.67;;
11893;SDS011;6006;49.696;8.662;2023-10-13T09:09:43;3.88;;;2.42;;
11893;SDS011;6006;49.696;8.662;2023-10-13T09:12:24;4.65;;;2.67;;
11893;SDS011;6006;49.696;8.662;2023-10-13T09:15:02;4.63;;;2.67;;
11893;SDS011;6006;49.696;8.662;2023-10-13T09:17:31;6.40;;;2.75;;
11893;SDS011;6006;49.696;8.662;2023-10-13T09:20:12;6.35;;;2.92;;
11893;SDS011;6006;49.696;8.662;2023-10-13T09:22:57;3.58;;;2.58;;
11893;SDS011;6006;49.696;8.662;2023-10-13T09:25:41;3.75;;;2.60;;
11893;SDS011;6006;49.696;8.662;2023-10-13T09:28:23;3.33;;;2.58;;
11893;SDS011;6006;49.696;8.662;2023-10-13T09:30:51;5.38;;;2.45;;
11893;SDS011;6006;49.696;8.662;2023-10-13T09:33:21;3.75;;;2.60;;
11893;SDS011;6006;49.696;8.662;2023-10-13T09:35:57;6.38;;;2.80;;
11893;SDS011;6006;49.696;8.662;2023-10-13T09:38:25;4.15;;;2.70;;
11893;SDS011;6006;49.696;8.662;2023-10-13T09:40:54;4.22;;;2.53;;
11893;SDS011;6006;49.696;8.662;2023-10-13T09:43:22;2.42;;;2.17;;
11893;SDS011;6006;49.696;8.662;2023-10-13T09:45:50;4.53;;;2.60;;
11893;SDS011;6006;49.696;8.662;2023-10-13T09:48:31;3.97;;;2.47;;
11893;SDS011;6006;49.696;8.662;2023-10-13T09:50:59;3.83;;;2.35;;
11893;SDS011;6006;49.696;8.662;2023-10-13T09:53:31;2.38;;;2.13;;
11893;SDS011;6006;49.696;8.662;2023-10-13T09:56:00;2.60;;;2.35;;
11893;SDS011;6006;49.696;8.662;2023-10-13T09:58:41;6.70;;;2.60;;
11893;SDS011;6006;49.696;8.662;2023-10-13T10:01:12;3.95;;;2.42;;
11893;SDS011;6006;49.696;8.662;2023-10-13T10:03:46;3.70;;;2.40;;
11893;SDS011;6006;49.696;8.662;2023-10-13T10:06:20;4.03;;;2.70;;
11893;SDS011;6006;49.696;8.662;2023-10-13T10:08:54;3.83;;;2.60;;
11893;SDS011;6006;49.696;8.662;2023-10-13T10:11:52;5.93;;;2.67;;
11893;SDS011;6006;49.696;8.662;2023-10-13T10:14:32;5.57;;;2.60;;
11893;SDS011;6006;49.696;8.662;2023-10-13T10:17:11;4.68;;;2.80;;
11893;SDS011;6006;49.696;8.662;2023-10-13T10:19:46;4.07;;;2.45;;
11893;SDS011;6006;49.696;8.662;2023-10-13T10:22:24;3.50;;;2.13;;
11893;SDS011;6006;49.696;8.662;2023-10-13T10:24:57;2.90;;;1.85;;
11893;SDS011;6006;49.696;8.662;2023-10-13T10:27:25;4.40;;;2.58;;
11893;SDS011;6006;49.696;8.662;2023-10-13T10:29:54;2.17;;;2.08;;
11893;SDS011;6006;49.696;8.662;2023-10-13T10:32:21;5.28;;;1.90;;
11893;SDS011;6006;49.696;8.662;2023-10-13T10:35:02;2.63;;;2.42;;
11893;SDS011;6006;49.696;8.662;2023-10-13T10:37:39;4.70;;;2.72;;
11893;SDS011;6006;49.696;8.662;2023-10-13T10:40:13;2.85;;;2.33;;
11893;SDS011;6006;49.696;8.662;2023-10-13T10:42:58;3.88;;;1.98;;
11893;SDS011;6006;49.696;8.662;2023-10-13T10:45:26;5.65;;;2.30;;
11893;SDS011;6006;49.696;8.662;2023-10-13T10:47:57;3.70;;;2.47;;
11893;SDS011;6006;49.696;8.662;2023-10-13T10:50:25;7.05;;;2.38;;
11893;SDS011;6006;49.696;8.662;2023-10-13T10:52:59;4.03;;;2.42;;
11893;SDS011;6006;49.696;8.662;2023-10-13T10:55:29;5.57;;;2.42;;
11893;SDS011;6006;49.696;8.662;2023-10-13T10:57:58;4.03;;;2.13;;
11893;SDS011;6006;49.696;8.662;2023-10-13T11:00:26;3.75;;;2.00;;
11893;SDS011;6006;49.696;8.662;2023-10-13T11:03:07;6.90;;;2.30;;
11893;SDS011;6006;49.696;8.662;2023-10-13T11:05:42;5.15;;;2.17;;
11893;SDS011;6006;49.696;8.662;2023-10-13T11:08:20;2.75;;;2.00;;
11893;SDS011;6006;49.696;8.662;2023-10-13T11:10:52;4.22;;;2.47;;
11893;SDS011;6006;49.696;8.662;2023-10-13T11:13:19;5.18;;;2.13;;
11893;SDS011;6006;49.696;8.662;2023-10-13T11:15:47;3.83;;;2.22;;
11893;SDS011;6006;49.696;8.662;2023-10-13T11:18:15;4.55;;;2.63;;
11893;SDS011;6006;49.696;8.662;2023-10-13T11:20:46;3.13;;;2.70;;
11893;SDS011;6006;49.696;8.662;2023-10-13T11:23:19;3.92;;;2.22;;
11893;SDS011;6006;49.696;8.662;2023-10-13T11:25:57;4.05;;;2.28;;
11893;SDS011;6006;49.696;8.662;2023-10-13T11:28:24;2.67;;;2.28;;
11893;SDS011;6006;49.696;8.662;2023-10-13T11:30:53;3.83;;;2.58;;
11893;SDS011;6006;49.696;8.662;2023-10-13T11:33:23;3.45;;;2.00;;
11893;SDS011;6006;49.696;8.662;2023-10-13T11:35:52;2.50;;;2.30;;
11893;SDS011;6006;49.696;8.662;2023-10-13T11:38:22;4.90;;;2.40;;
11893;SDS011;6006;49.696;8.662;2023-10-13T11:40:53;3.80;;;2.70;;
11893;SDS011;6006;49.696;8.662;2023-10-13T11:43:38;3.92;;;2.13;;
11893;SDS011;6006;49.696;8.662;2023-10-13T11:46:26;4.28;;;2.05;;
11893;SDS011;6006;49.696;8.662;2023-10-13T11:49:11;3.38;;;2.50;;
11893;SDS011;6006;49.696;8.662;2023-10-13T11:51:44;4.68;;;2.65;;
11893;SDS011;6006;49.696;8.662;2023-10-13T11:54:11;2.90;;;2.10;;
11893;SDS011;6006;49.696;8.662;2023-10-13T11:56:39;3.15;;;2.47;;
11893;SDS011;6006;49.696;8.662;2023-10-13T11:59:08;3.55;;;2.78;;
11893;SDS011;6006;49.696;8.662;2023-10-13T12:01:42;3.75;;;2.10;;
11893;SDS011;6006;49.696;8.662;2023-10-13T12:04:27;4.20;;;2.42;;
11893;SDS011;6006;49.696;8.662;2023-10-13T12:06:59;5.20;;;2.75;;
11893;SDS011;6006;49.696;8.662;2023-10-13T12:09:39;3.22;;;2.42;;
11893;SDS011;6006;49.696;8.662;2023-10-13T12:12:17;2.42;;;2.20;;
11893;SDS011;6006;49.696;8.662;2023-10-13T12:14:45;4.47;;;2.38;;
11893;SDS011;6006;49.696;8.662;2023-10-13T12:17:20;2.50;;;2.25;;
11893;SDS011;6006;49.696;8.662;2023-10-13T12:19:51;5.68;;;2.53;;
11893;SDS011;6006;49.696;8.662;2023-10-13T12:22:18;4.45;;;2.30;;
11893;SDS011;6006;49.696;8.662;2023-10-13T12:24:52;3.55;;;2.35;;
11893;SDS011;6006;49.696;8.662;2023-10-13T12:27:19;3.63;;;2.25;;
11893;SDS011;6006;49.696;8.662;2023-10-13T12:29:50;4.07;;;2.47;;
11893;SDS011;6006;49.696;8.662;2023-10-13T12:32:17;5.85;;;2.55;;
11893;SDS011;6006;49.696;8.662;2023-10-13T12:34:47;3.72;;;2.42;;
11893;SDS011;6006;49.696;8.662;2023-10-13T12:37:25;2.95;;;2.70;;
11893;SDS011;6006;49.696;8.662;2023-10-13T12:40:12;4.32;;;2.60;;
11893;SDS011;6006;49.696;8.662;2023-10-13T12:42:57;4.50;;;2.67;;
11893;SDS011;6006;49.696;8.662;2023-10-13T12:45:43;4.68;;;2.47;;
11893;SDS011;6006;49.696;8.662;2023-10-13T12:48:29;3.65;;;2.50;;
11893;SDS011;6006;49.696;8.662;2023-10-13T12:51:13;2.92;;;2.35;;
11893;SDS011;6006;49.696;8.662;2023-10-13T12:53:46;5.55;;;2.90;;
11893;SDS011;6006;49.696;8.662;2023-10-13T12:56:13;3.78;;;2.50;;
11893;SDS011;6006;49.696;8.662;2023-10-13T12:58:40;3.53;;;2.85;;
11893;SDS011;6006;49.696;8.662;2023-10-13T13:01:18;4.97;;;2.38;;
11893;SDS011;6006;49.696;8.662;2023-10-13T13:03:45;6.28;;;2.92;;
11893;SDS011;6006;49.696;8.662;2023-10-13T13:06:17;4.97;;;2.72;;
11893;SDS011;6006;49.696;8.662;2023-10-13T13:08:50;3.53;;;2.40;;
11893;SDS011;6006;49.696;8.662;2023-10-13T13:11:18;3.20;;;2.53;;
11893;SDS011;6006;49.696;8.662;2023-10-13T13:13:45;5.57;;;2.55;;
11893;SDS011;6006;49.696;8.662;2023-10-13T13:16:12;2.53;;;2.33;;
11893;SDS011;6006;49.696;8.662;2023-10-13T13:18:40;5.78;;;2.78;;
11893;SDS011;6006;49.696;8.662;2023-10-13T13:21:08;6.80;;;2.42;;
11893;SDS011;6006;49.696;8.662;2023-10-13T13:23:37;2.88;;;2.67;;
11893;SDS011;6006;49.696;8.662;2023-10-13T13:26:04;2.95;;;2.58;;
11893;SDS011;6006;49.696;8.662;2023-10-13T13:28:40;3.88;;;2.40;;
11893;SDS011;6006;49.696;8.662;2023-10-13T13:31:07;2.65;;;2.45;;
11893;SDS011;6006;49.696;8.662;2023-10-13T13:33:37;3.97;;;2.65;;
11893;SDS011;6006;49.696;8.662;2023-10-13T13:36:09;7.25;;;3.00;;
11893;SDS011;6006;49.696;8.662;2023-10-13T13:38:40;5.68;;;2.75;;
11893;SDS011;6006;49.696;8.662;2023-10-13T13:41:11;6.57;;;2.65;;
11893;SDS011;6006;49.696;8.662;2023-10-13T13:43:41;4.38;;;2.53;;
11893;SDS011;6006;49.696;8.662;2023-10-13T13:46:20;3.63;;;2.40;;
11893;SDS011;6006;49.696;8.662;2023-10-13T13:48:50;4.75;;;2.35;;
11893;SDS011;6006;49.696;8.662;2023-10-13T13:51:24;4.15;;;2.42;;
11893;SDS011;6006;49.696;8.662;2023-10-13T13:53:53;2.65;;;2.45;;
11893;SDS011;6006;49.696;8.662;2023-10-13T13:56:20;3.33;;;2.50;;
11893;SDS011;6006;49.696;8.662;2023-10-13T13:58:50;5.32;;;2.75;;
11893;SDS011;6006;49.696;8.662;2023-10-13T14:01:18;3.45;;;2.42;;
11893;SDS011;6006;49.696;8.662;2023-10-13T14:03:47;2.92;;;2.25;;
11893;SDS011;6006;49.696;8.662;2023-10-13T14:06:16;3.35;;;2.47;;
11893;SDS011;6006;49.696;8.662;2023-10-13T14:08:47;6.65;;;2.60;;
11893;SDS011;6006;49.696;8.662;2023-10-13T14:11:16;3.80;;;2.42;;
11893;SDS011;6006;49.696;8.662;2023-10-13T14:14:08;5.80;;;2.72;;
11893;SDS011;6006;49.696;8.662;2023-10-13T14:16:37;3.15;;;2.42;;
11893;SDS011;6006;49.696;8.662;2023-10-13T14:19:09;7.95;;;2.92;;
11893;SDS011;6006;49.696;8.662;2023-10-13T14:21:36;3.90;;;2.55;;
11893;SDS011;6006;49.696;8.662;2023-10-13T14:24:05;2.78;;;2.40;;
11893;SDS011;6006;49.696;8.662;2023-10-13T14:26:38;2.97;;;2.33;;
11893;SDS011;6006;49.696;8.662;2023-10-13T14:29:08;4.72;;;2.30;;
11893;SDS011;6006;49.696;8.662;2023-10-13T14:31:39;4.03;;;3.20;;
11893;SDS011;6006;49.696;8.662;2023-10-13T14:34:06;3.53;;;2.88;;
11893;SDS011;6006;49.696;8.662;2023-10-13T14:36:33;5.07;;;2.75;;
11893;SDS011;6006;49.696;8.662;2023-10-13T14:39:00;3.53;;;2.42;;
11893;SDS011;6006;49.696;8.662;2023-10-13T14:41:30;5.35;;;2.35;;
11893;SDS011;6006;49.696;8.662;2023-10-13T14:43:57;4.57;;;3.40;;
11893;SDS011;6006;49.696;8.662;2023-10-13T14:46:30;3.38;;;2.30;;
11893;SDS011;6006;49.696;8.662;2023-10-13T14:49:00;3.63;;;2.53;;
11893;SDS011;6006;49.696;8.662;2023-10-13T14:51:27;3.08;;;2.65;;
11893;SDS011;6006;49.696;8.662;2023-10-13T14:53:54;7.07;;;2.53;;
11893;SDS011;6006;49.696;8.662;2023-10-13T14:56:24;10.32;;;3.72;;
11893;SDS011;6006;49.696;8.662;2023-10-13T14:58:53;5.93;;;2.70;;
11893;SDS011;6006;49.696;8.662;2023-10-13T15:01:22;4.47;;;2.30;;
11893;SDS011;6006;49.696;8.662;2023-10-13T15:03:52;4.25;;;2.85;;
11893;SDS011;6006;49.696;8.662;2023-10-13T15:06:20;5.00;;;2.92;;
11893;SDS011;6006;49.696;8.662;2023-10-13T15:08:50;3.33;;;2.38;;
11893;SDS011;6006;49.696;8.662;2023-10-13T15:11:19;2.40;;;2.10;;
11893;SDS011;6006;49.696;8.662;2023-10-13T15:13:46;6.00;;;2.50;;
11893;SDS011;6006;49.696;8.662;2023-10-13T15:16:17;5.78;;;2.50;;
11893;SDS011;6006;49.696;8.662;2023-10-13T15:18:45;3.20;;;2.42;;
11893;SDS011;6006;49.696;8.662;2023-10-13T15:21:18;3.80;;;2.15;;
11893;SDS011;6006;49.696;8.662;2023-10-13T15:23:46;4.22;;;2.17;;
11893;SDS011;6006;49.696;8.662;2023-10-13T15:26:13;2.88;;;2.10;;
11893;SDS011;6006;49.696;8.662;2023-10-13T15:28:40;6.10;;;2.50;;
11893;SDS011;6006;49.696;8.662;2023-10-13T15:31:14;3.17;;;2.10;;
11893;SDS011;6006;49.696;8.662;2023-10-13T15:33:52;3.25;;;2.10;;
11893;SDS011;6006;49.696;8.662;2023-10-13T15:36:21;4.10;;;2.33;;
11893;SDS011;6006;49.696;8.662;2023-10-13T15:38:49;3.50;;;2.42;;
11893;SDS011;6006;49.696;8.662;2023-10-13T15:41:20;4.45;;;2.58;;